Sunny Point Military Ocean T, North Carolina
Current Conditions -  °F | °C
As of 1:35 AM on Friday 28 Nov 2014 (Local Time) from KSUT Reporting Station
Clear Clear  
Wind Chill: 36°   Ceiling: Unl
Heat Index: 36°   Visibility: 10mi
Dew Point: 32°   Wind: 3mph
Humidity: 88%   Direction: 320°NW
Pressure: 30.26"   Gusts: NA
Location:  33.9216°N, 78.1244°W
Report Text: KSUT 280635Z AUTO 32003KT 10SM CLR 02/00 A3026 RMK AO2 T00200002
Loading
Personal Weather Stations






























Interactive Weather Map New forecast layout! Learn more

10-Day Weather Forecast

Advertisements
Track Severe Weather on mobile